Time;durP1;ratioP1;P1;durP2;ratioP2;P2;SDS_P1;SDS_P2;PMS_P1;PMS_P2;Temp;Humidity;BMP_temperature;BMP_pressure;BME280_temperature;BME280_humidity;BME280_pressure;Samples;Min_cycle;Max_cycle;Signal;HPM_P1;HPM_P2
2023/06/15 00:00:07;;;;;;;3.95;0.88;;;;;;;;;;5087241;28;20052;-75
2023/06/15 00:02:41;;;;;;;4.38;0.73;;;;;;;;;;5112216;28;20052;-75
2023/06/15 00:05:12;;;;;;;4.35;1.05;;;;;;;;;;5107186;28;20062;-75
2023/06/15 00:07:44;;;;;;;7.35;1.40;;;;;;;;;;5106869;28;20046;-75
2023/06/15 00:10:15;;;;;;;8.32;1.15;;;;;;;;;;5106575;28;20044;-75
2023/06/15 00:12:47;;;;;;;4.22;1.30;;;;;;;;;;5107108;28;20060;-76
2023/06/15 00:15:18;;;;;;;;;;;;;;;;;;5088783;28;20074;-75
2023/06/15 00:17:49;;;;;;;5.95;1.13;;;;;;;;;;5106582;28;19924;-75
2023/06/15 00:20:21;;;;;;;3.10;1.30;;;;;;;;;;5107215;28;20063;-75
2023/06/15 00:22:51;;;;;;;9.23;0.95;;;;;;;;;;5105724;28;20044;-76
2023/06/15 00:25:21;;;;;;;;;;;;;;;;;;5106240;28;20059;-75
2023/06/15 00:27:53;;;;;;;5.10;1.10;;;;;;;;;;5104229;28;19919;-76
2023/06/15 00:30:23;;;;;;;7.15;1.33;;;;;;;;;;5105159;28;20425;-77
2023/06/15 00:32:53;;;;;;;;;;;;;;;;;;5105656;28;20410;-75
2023/06/15 00:35:24;;;;;;;5.80;0.90;;;;;;;;;;5104630;28;20369;-77
2023/06/15 00:37:56;;;;;;;5.18;1.20;;;;;;;;;;5106645;28;20043;-76
2023/06/15 00:40:26;;;;;;;4.63;0.70;;;;;;;;;;5106631;28;20043;-75
2023/06/15 00:42:56;;;;;;;4.93;0.80;;;;;;;;;;5106112;28;20815;-76
2023/06/15 00:45:29;;;;;;;6.85;1.42;;;;;;;;;;5087193;28;20570;-75
2023/06/15 00:48:00;;;;;;;3.40;0.70;;;;;;;;;;5086782;28;20058;-75
2023/06/15 00:50:31;;;;;;;3.30;0.70;;;;;;;;;;5105904;28;20441;-75
2023/06/15 00:53:03;;;;;;;5.78;0.98;;;;;;;;;;5086699;28;20044;-75
2023/06/15 00:55:36;;;;;;;6.18;1.17;;;;;;;;;;5087067;28;20052;-75
2023/06/15 00:58:07;;;;;;;2.63;1.02;;;;;;;;;;5104241;28;20051;-75
2023/06/15 01:00:38;;;;;;;7.07;1.25;;;;;;;;;;5087249;28;20518;-74
2023/06/15 01:03:12;;;;;;;3.38;1.00;;;;;;;;;;5087358;28;20083;-74
2023/06/15 01:05:44;;;;;;;4.30;0.80;;;;;;;;;;5106168;28;20433;-75
2023/06/15 01:08:16;;;;;;;2.55;0.90;;;;;;;;;;5106277;28;20048;-74
2023/06/15 01:10:47;;;;;;;2.47;0.50;;;;;;;;;;5106068;28;20593;-74
2023/06/15 01:13:21;;;;;;;5.03;0.70;;;;;;;;;;5105848;28;20058;-75
2023/06/15 01:15:57;;;;;;;4.47;0.60;;;;;;;;;;5087066;28;20059;-75
2023/06/15 01:18:29;;;;;;;4.90;0.70;;;;;;;;;;5106094;28;20143;-75
2023/06/15 01:21:02;;;;;;;5.60;0.82;;;;;;;;;;5105551;28;20052;-75
2023/06/15 01:23:33;;;;;;;1.98;0.43;;;;;;;;;;5105665;28;20686;-75
2023/06/15 01:26:09;;;;;;;5.60;0.80;;;;;;;;;;5087019;28;20055;-75
2023/06/15 01:28:45;;;;;;;4.45;0.63;;;;;;;;;;5103426;28;20044;-76
2023/06/15 01:31:18;;;;;;;5.88;0.77;;;;;;;;;;5085054;28;20048;-75
2023/06/15 01:33:51;;;;;;;6.70;0.40;;;;;;;;;;5085576;28;20426;-75
2023/06/15 01:36:22;;;;;;;1.38;0.50;;;;;;;;;;5104208;28;20049;-74
2023/06/15 01:38:57;;;;;;;1.02;0.88;;;;;;;;;;5086012;28;20039;-75
2023/06/15 01:41:27;;;;;;;6.55;1.00;;;;;;;;;;5104932;28;20048;-75
2023/06/15 01:44:03;;;;;;;2.90;0.52;;;;;;;;;;5070986;28;20895;-75
2023/06/15 01:46:35;;;;;;;1.23;0.47;;;;;;;;;;5105838;28;20057;-74
2023/06/15 01:49:06;;;;;;;4.57;0.52;;;;;;;;;;5105671;28;20058;-75
2023/06/15 01:51:36;;;;;;;5.47;0.70;;;;;;;;;;5105200;28;20048;-75
2023/06/15 01:54:09;;;;;;;2.65;0.40;;;;;;;;;;5105387;28;20395;-74
2023/06/15 01:56:41;;;;;;;4.57;0.40;;;;;;;;;;5103177;28;20437;-75
2023/06/15 01:59:11;;;;;;;5.07;0.68;;;;;;;;;;5087364;28;20048;-75
2023/06/15 02:01:41;;;;;;;2.15;0.80;;;;;;;;;;5087121;28;20043;-75
2023/06/15 02:04:12;;;;;;;2.78;0.55;;;;;;;;;;5105500;28;20052;-76
2023/06/15 02:06:42;;;;;;;2.10;0.38;;;;;;;;;;5086328;28;20055;-75
2023/06/15 02:09:13;;;;;;;2.22;0.52;;;;;;;;;;5105130;28;20040;-75
2023/06/15 02:11:45;;;;;;;2.70;0.40;;;;;;;;;;5087635;28;20043;-76
2023/06/15 02:14:17;;;;;;;2.20;0.70;;;;;;;;;;5086988;28;20054;-75
2023/06/15 02:16:49;;;;;;;3.45;0.80;;;;;;;;;;5087079;28;20064;-75
2023/06/15 02:19:21;;;;;;;2.35;0.68;;;;;;;;;;5105310;28;20051;-75
2023/06/15 02:21:52;;;;;;;8.55;0.70;;;;;;;;;;5086077;28;20062;-75
2023/06/15 02:24:23;;;;;;;1.25;0.40;;;;;;;;;;5086569;28;20058;-76
2023/06/15 02:26:53;;;;;;;1.23;0.30;;;;;;;;;;5086711;28;20059;-76
2023/06/15 02:29:25;;;;;;;4.80;0.50;;;;;;;;;;5105418;28;20094;-77
2023/06/15 02:31:57;;;;;;;5.47;0.77;;;;;;;;;;5086948;28;20052;-74
2023/06/15 02:34:27;;;;;;;6.10;1.52;;;;;;;;;;5105016;28;20066;-74
2023/06/15 02:36:58;;;;;;;5.10;0.63;;;;;;;;;;5105214;28;20430;-74
2023/06/15 02:39:30;;;;;;;2.30;0.75;;;;;;;;;;5086510;28;20059;-73
2023/06/15 02:42:02;;;;;;;7.05;1.23;;;;;;;;;;5086579;28;20070;-73
2023/06/15 02:44:32;;;;;;;1.88;0.60;;;;;;;;;;5104414;28;20032;-74
2023/06/15 02:47:04;;;;;;;4.95;1.02;;;;;;;;;;5089412;28;20056;-73
2023/06/15 02:49:34;;;;;;;5.75;0.75;;;;;;;;;;5090747;28;20505;-73
2023/06/15 02:52:05;;;;;;;5.78;0.73;;;;;;;;;;5090757;28;20047;-73
2023/06/15 02:54:36;;;;;;;5.53;0.45;;;;;;;;;;5090044;28;20514;-72
2023/06/15 02:57:08;;;;;;;7.10;0.40;;;;;;;;;;5089887;28;20059;-73
2023/06/15 02:59:54;;;;;;;7.38;0.45;;;;;;;;;;5089658;28;20055;-73
2023/06/15 03:02:25;;;;;;;2.28;0.43;;;;;;;;;;5090358;28;20464;-73
2023/06/15 03:04:57;;;;;;;4.95;0.50;;;;;;;;;;5090215;28;20055;-73
2023/06/15 03:07:41;;;;;;;1.52;0.30;;;;;;;;;;5090137;28;20062;-73
2023/06/15 03:10:30;;;;;;;5.18;0.50;;;;;;;;;;5112453;28;20056;-73
2023/06/15 03:13:01;;;;;;;8.18;1.00;;;;;;;;;;5089335;28;20047;-73
2023/06/15 03:15:32;;;;;;;8.07;0.70;;;;;;;;;;5089499;28;20437;-72
2023/06/15 03:18:03;;;;;;;6.80;0.93;;;;;;;;;;5089133;28;20048;-72
2023/06/15 03:20:37;;;;;;;6.32;0.57;;;;;;;;;;5089546;28;20058;-73
2023/06/15 03:23:09;;;;;;;1.33;0.50;;;;;;;;;;5108520;28;20597;-73
2023/06/15 03:25:40;;;;;;;2.95;0.55;;;;;;;;;;5108223;28;20062;-72
2023/06/15 03:28:11;;;;;;;8.55;0.82;;;;;;;;;;5089114;28;20074;-73
2023/06/15 03:30:46;;;;;;;1.38;0.47;;;;;;;;;;5107888;28;20048;-73
2023/06/15 03:33:20;;;;;;;8.05;1.15;;;;;;;;;;5089432;28;20044;-73
2023/06/15 03:35:53;;;;;;;11.90;0.85;;;;;;;;;;5089725;28;20062;-73
2023/06/15 03:38:24;;;;;;;4.30;0.47;;;;;;;;;;5088921;28;20055;-73
2023/06/15 03:40:55;;;;;;;8.30;0.88;;;;;;;;;;5089004;28;20411;-73
2023/06/15 03:43:27;;;;;;;5.05;0.70;;;;;;;;;;5089069;28;20056;-73
2023/06/15 03:45:58;;;;;;;3.72;0.57;;;;;;;;;;5088985;28;20055;-73
2023/06/15 03:48:28;;;;;;;2.75;0.60;;;;;;;;;;5107544;28;20043;-73
2023/06/15 03:51:00;;;;;;;10.07;1.00;;;;;;;;;;5107462;28;20506;-73
2023/06/15 03:53:31;;;;;;;4.50;1.00;;;;;;;;;;5089123;28;20059;-74
2023/06/15 03:56:02;;;;;;;4.43;0.80;;;;;;;;;;5089209;28;20113;-73
2023/06/15 03:58:33;;;;;;;3.65;0.60;;;;;;;;;;5089111;28;20050;-72
2023/06/15 04:01:04;;;;;;;4.05;0.60;;;;;;;;;;5107480;28;20058;-73
2023/06/15 04:03:36;;;;;;;4.18;0.63;;;;;;;;;;5072732;28;20051;-73
2023/06/15 04:06:07;;;;;;;8.48;0.75;;;;;;;;;;5107531;28;20133;-73
2023/06/15 04:08:39;;;;;;;2.47;0.35;;;;;;;;;;5088848;28;20048;-73
2023/06/15 04:11:09;;;;;;;6.90;0.63;;;;;;;;;;5107698;28;20597;-73
2023/06/15 04:13:40;;;;;;;3.67;0.43;;;;;;;;;;5089059;28;20055;-73
2023/06/15 04:16:12;;;;;;;2.72;0.50;;;;;;;;;;5106802;28;20056;-74
2023/06/15 04:18:44;;;;;;;3.85;0.50;;;;;;;;;;5088727;28;20055;-74
2023/06/15 04:21:16;;;;;;;5.97;0.85;;;;;;;;;;5088457;28;20054;-74
2023/06/15 04:23:47;;;;;;;6.97;0.80;;;;;;;;;;5088460;28;20054;-74
2023/06/15 04:26:20;;;;;;;9.13;0.70;;;;;;;;;;5088624;28;20077;-74
2023/06/15 04:28:52;;;;;;;4.18;0.65;;;;;;;;;;5088838;28;20052;-75
2023/06/15 04:31:24;;;;;;;2.15;0.57;;;;;;;;;;5107318;28;20406;-73
2023/06/15 04:33:58;;;;;;;4.50;0.70;;;;;;;;;;5088128;28;20074;-73
2023/06/15 04:36:31;;;;;;;2.03;0.45;;;;;;;;;;5088268;28;20059;-73
2023/06/15 04:39:03;;;;;;;6.03;0.68;;;;;;;;;;5087793;28;20062;-75
2023/06/15 04:41:35;;;;;;;2.00;0.60;;;;;;;;;;5088491;28;20058;-73
2023/06/15 04:44:07;;;;;;;4.90;0.80;;;;;;;;;;5088464;28;20122;-74
2023/06/15 04:46:39;;;;;;;6.05;0.63;;;;;;;;;;5088616;28;20052;-74
2023/06/15 04:49:12;;;;;;;2.80;0.60;;;;;;;;;;5087607;28;20518;-74
2023/06/15 04:51:44;;;;;;;5.00;0.65;;;;;;;;;;5087713;28;20047;-73
2023/06/15 04:54:15;;;;;;;3.05;0.75;;;;;;;;;;5088391;28;20133;-73
2023/06/15 04:56:45;;;;;;;1.88;0.60;;;;;;;;;;5088240;28;20062;-72
2023/06/15 04:59:18;;;;;;;2.17;0.65;;;;;;;;;;5087892;28;20852;-73
2023/06/15 05:01:48;;;;;;;2.40;0.60;;;;;;;;;;5087913;28;20051;-74
2023/06/15 05:04:33;;;;;;;1.85;0.50;;;;;;;;;;5087851;28;20050;-72
2023/06/15 05:07:05;;;;;;;2.08;0.47;;;;;;;;;;5106649;28;20043;-75
2023/06/15 05:09:42;;;;;;;0.68;0.30;;;;;;;;;;5087398;28;20058;-74
2023/06/15 05:12:16;;;;;;;2.58;0.40;;;;;;;;;;5086522;28;20446;-73
2023/06/15 05:14:47;;;;;;;1.88;0.45;;;;;;;;;;5087288;28;20055;-74
2023/06/15 05:17:20;;;;;;;4.63;0.70;;;;;;;;;;5087999;28;20592;-73
2023/06/15 05:19:51;;;;;;;5.53;0.80;;;;;;;;;;5087270;28;20052;-75
2023/06/15 05:22:23;;;;;;;3.35;0.60;;;;;;;;;;5086539;28;20063;-75
2023/06/15 05:24:52;;;;;;;;;;;;;;;;;;5106529;28;20050;-75
2023/06/15 05:27:23;;;;;;;4.40;0.43;;;;;;;;;;5086841;28;19942;-74
2023/06/15 05:29:54;;;;;;;4.57;0.63;;;;;;;;;;5087367;28;20055;-74
2023/06/15 05:32:26;;;;;;;3.35;0.40;;;;;;;;;;5087415;28;20048;-75
2023/06/15 05:34:55;;;;;;;1.48;0.50;;;;;;;;;;5087875;28;20044;-75
2023/06/15 05:37:26;;;;;;;3.83;0.70;;;;;;;;;;5086779;28;20055;-74
2023/06/15 05:39:58;;;;;;;3.08;0.50;;;;;;;;;;5105807;28;20400;-74
2023/06/15 05:42:30;;;;;;;2.20;0.30;;;;;;;;;;5087047;28;20052;-74
2023/06/15 05:45:01;;;;;;;2.60;0.32;;;;;;;;;;5087001;28;20052;-74
2023/06/15 05:47:35;;;;;;;2.47;0.30;;;;;;;;;;5105245;28;20035;-74
2023/06/15 05:50:06;;;;;;;0.50;0.20;;;;;;;;;;5086874;28;20059;-74
2023/06/15 05:52:37;;;;;;;3.30;0.52;;;;;;;;;;5086996;28;20059;-74
2023/06/15 05:55:07;;;;;;;2.20;0.45;;;;;;;;;;5087845;28;20404;-74
2023/06/15 05:57:37;;;;;;;2.05;0.30;;;;;;;;;;5086794;28;20063;-73
2023/06/15 06:00:09;;;;;;;0.98;0.30;;;;;;;;;;5105476;28;20054;-74
2023/06/15 06:02:43;;;;;;;2.45;0.60;;;;;;;;;;5105269;28;20047;-73
2023/06/15 06:05:29;;;;;;;2.88;0.30;;;;;;;;;;5086598;28;20048;-74
2023/06/15 06:08:00;;;;;;;4.63;0.93;;;;;;;;;;5087526;28;20059;-73
2023/06/15 06:10:31;;;;;;;2.50;0.40;;;;;;;;;;5086755;28;20557;-74
2023/06/15 06:13:20;;;;;;;2.00;0.40;;;;;;;;;;5102132;28;20059;-74
2023/06/15 06:15:51;;;;;;;3.00;0.98;;;;;;;;;;5086769;28;20051;-74
2023/06/15 06:18:21;;;;;;;3.50;0.40;;;;;;;;;;5086757;28;20052;-74
2023/06/15 06:20:51;;;;;;;2.38;0.38;;;;;;;;;;5088665;28;20047;-74
2023/06/15 06:23:22;;;;;;;4.25;0.40;;;;;;;;;;5109942;28;20039;-74
2023/06/15 06:25:52;;;;;;;3.65;0.73;;;;;;;;;;5091282;28;20052;-75
2023/06/15 06:28:24;;;;;;;2.55;0.52;;;;;;;;;;5109143;28;20052;-74
2023/06/15 06:30:54;;;;;;;7.88;0.70;;;;;;;;;;5108897;28;20490;-75
2023/06/15 06:33:24;;;;;;;6.20;0.73;;;;;;;;;;5109022;28;20043;-75
2023/06/15 06:35:54;;;;;;;;;;;;;;;;;;5109344;28;20048;-74
2023/06/15 06:38:27;;;;;;;2.05;0.40;;;;;;;;;;5109136;28;19931;-74
2023/06/15 06:40:57;;;;;;;3.72;0.40;;;;;;;;;;5109528;28;20048;-74
2023/06/15 06:43:28;;;;;;;1.48;0.32;;;;;;;;;;5108948;28;20059;-74
2023/06/15 06:45:58;;;;;;;2.78;0.32;;;;;;;;;;5108856;28;20044;-74
2023/06/15 06:48:28;;;;;;;;;;;;;;;;;;5109204;28;20429;-74
2023/06/15 06:50:58;;;;;;;5.22;0.60;;;;;;;;;;5108578;28;19927;-74
2023/06/15 06:53:28;;;;;;;1.10;0.20;;;;;;;;;;5090370;28;20498;-74
2023/06/15 06:56:00;;;;;;;2.10;0.40;;;;;;;;;;5109017;28;20058;-75
2023/06/15 06:58:31;;;;;;;3.97;0.20;;;;;;;;;;5108977;28;20054;-74
2023/06/15 07:01:02;;;;;;;3.97;0.40;;;;;;;;;;5108395;28;20048;-75
2023/06/15 07:03:32;;;;;;;1.38;0.40;;;;;;;;;;5108550;28;20062;-75
2023/06/15 07:06:03;;;;;;;0.30;0.20;;;;;;;;;;5108668;28;20066;-75
2023/06/15 07:08:33;;;;;;;4.97;0.50;;;;;;;;;;5090375;28;20060;-74
2023/06/15 07:11:05;;;;;;;5.50;0.50;;;;;;;;;;5108503;28;20040;-75
2023/06/15 07:13:35;;;;;;;0.65;0.15;;;;;;;;;;5109154;28;20544;-74
2023/06/15 07:16:06;;;;;;;3.00;0.40;;;;;;;;;;5108300;28;20605;-74
2023/06/15 07:18:36;;;;;;;3.30;0.30;;;;;;;;;;5107865;28;20458;-74
2023/06/15 07:21:06;;;;;;;;;;;;;;;;;;5108897;28;20444;-75
2023/06/15 07:23:38;;;;;;;0.10;0.10;;;;;;;;;;5107911;28;19920;-74
2023/06/15 07:26:23;;;;;;;0.98;0.35;;;;;;;;;;5108612;28;20044;-75
2023/06/15 07:28:53;;;;;;;0.50;0.30;;;;;;;;;;5108241;28;20498;-74
2023/06/15 07:31:24;;;;;;;0.25;0.17;;;;;;;;;;5090127;28;20048;-74
2023/06/15 07:33:57;;;;;;;2.17;0.30;;;;;;;;;;5107962;28;20047;-75
2023/06/15 07:36:27;;;;;;;0.88;0.30;;;;;;;;;;5107433;28;20498;-74
2023/06/15 07:38:57;;;;;;;;;;;;;;;;;;5108422;28;20043;-75
2023/06/15 07:41:27;;;;;;;1.15;0.20;;;;;;;;;;5108190;28;19946;-74
2023/06/15 07:43:58;;;;;;;0.75;0.20;;;;;;;;;;5107966;28;20823;-74
2023/06/15 07:46:29;;;;;;;0.88;0.28;;;;;;;;;;5108500;28;20047;-74
2023/06/15 07:49:00;;;;;;;5.88;0.30;;;;;;;;;;5089445;28;20046;-74
2023/06/15 07:51:31;;;;;;;3.25;0.60;;;;;;;;;;5107187;28;20409;-75
2023/06/15 07:54:22;;;;;;;3.83;0.45;;;;;;;;;;5107816;28;20035;-74
2023/06/15 07:56:52;;;;;;;0.75;0.30;;;;;;;;;;5107548;28;20063;-74
2023/06/15 07:59:22;;;;;;;2.58;0.40;;;;;;;;;;5107634;28;20518;-75
2023/06/15 08:01:53;;;;;;;1.00;0.20;;;;;;;;;;5107846;28;20053;-74
2023/06/15 08:04:23;;;;;;;0.75;0.20;;;;;;;;;;5107629;28;20051;-74
2023/06/15 08:06:54;;;;;;;9.55;0.50;;;;;;;;;;5089110;28;20044;-75
2023/06/15 08:09:24;;;;;;;5.38;0.35;;;;;;;;;;5107897;28;20051;-74
2023/06/15 08:11:55;;;;;;;3.03;0.30;;;;;;;;;;5106943;28;20066;-74
2023/06/15 08:14:26;;;;;;;1.05;0.35;;;;;;;;;;5107697;28;20052;-76
2023/06/15 08:16:57;;;;;;;2.45;0.30;;;;;;;;;;5107572;28;20498;-74
2023/06/15 08:19:27;;;;;;;1.73;0.73;;;;;;;;;;5107346;28;20094;-73
2023/06/15 08:21:58;;;;;;;1.35;0.22;;;;;;;;;;5108069;28;20047;-75
2023/06/15 08:24:29;;;;;;;0.93;0.40;;;;;;;;;;5107181;28;20399;-73
2023/06/15 08:27:00;;;;;;;2.15;0.30;;;;;;;;;;5106302;28;20043;-75
2023/06/15 08:29:31;;;;;;;0.28;0.15;;;;;;;;;;5107230;28;20058;-74
2023/06/15 08:32:01;;;;;;;0.50;0.50;;;;;;;;;;5106695;28;20054;-74
2023/06/15 08:34:32;;;;;;;1.00;0.25;;;;;;;;;;5106677;28;20525;-75
2023/06/15 08:37:04;;;;;;;0.73;0.20;;;;;;;;;;5107238;28;20054;-73
2023/06/15 08:39:34;;;;;;;1.55;0.47;;;;;;;;;;5106911;28;20058;-74
2023/06/15 08:42:05;;;;;;;2.60;0.20;;;;;;;;;;5106632;28;20050;-73
2023/06/15 08:44:36;;;;;;;0.45;0.17;;;;;;;;;;5105791;28;20048;-75
2023/06/15 08:47:08;;;;;;;1.85;0.40;;;;;;;;;;5106340;28;20055;-75
2023/06/15 08:49:40;;;;;;;3.45;0.38;;;;;;;;;;5106811;28;20502;-75
2023/06/15 08:52:12;;;;;;;0.08;0.08;;;;;;;;;;5106723;28;20434;-74
2023/06/15 08:54:44;;;;;;;0.75;0.28;;;;;;;;;;5107157;28;20058;-75
2023/06/15 08:57:15;;;;;;;0.90;0.20;;;;;;;;;;5106192;28;20502;-75
2023/06/15 08:59:46;;;;;;;1.65;0.20;;;;;;;;;;5088550;28;20046;-75
2023/06/15 09:02:21;;;;;;;1.45;0.10;;;;;;;;;;5106459;28;20052;-76
2023/06/15 09:04:52;;;;;;;0.70;0.20;;;;;;;;;;5106434;28;20044;-75
2023/06/15 09:07:24;;;;;;;0.22;0.15;;;;;;;;;;5105994;28;20051;-76
2023/06/15 09:10:17;;;;;;;0.57;0.20;;;;;;;;;;5105766;28;20490;-75
2023/06/15 09:12:51;;;;;;;0.08;0.08;;;;;;;;;;5106180;28;20047;-75
2023/06/15 09:15:25;;;;;;;3.10;0.22;;;;;;;;;;5106283;28;21138;-76
2023/06/15 09:17:58;;;;;;;2.75;1.35;;;;;;;;;;5105975;28;20055;-77
2023/06/15 09:20:38;;;;;;;5.78;0.45;;;;;;;;;;5106391;28;20047;-75
2023/06/15 09:23:13;;;;;;;3.08;0.30;;;;;;;;;;5106961;28;20047;-76
2023/06/15 09:25:56;;;;;;;2.50;0.32;;;;;;;;;;5087961;28;20402;-76
2023/06/15 09:28:29;;;;;;;0.98;0.10;;;;;;;;;;5105854;28;20422;-77
2023/06/15 09:31:01;;;;;;;1.30;0.20;;;;;;;;;;5105851;28;20052;-75
2023/06/15 09:33:31;;;;;;;0.25;0.10;;;;;;;;;;5106005;28;20054;-75
2023/06/15 09:36:07;;;;;;;1.08;0.30;;;;;;;;;;5105833;28;20058;-76
2023/06/15 09:38:45;;;;;;;1.88;0.47;;;;;;;;;;5087850;28;20047;-76
2023/06/15 09:41:16;;;;;;;0.75;0.13;;;;;;;;;;5105754;28;20675;-76
2023/06/15 09:43:46;;;;;;;0.55;0.20;;;;;;;;;;5088037;28;20485;-75
2023/06/15 09:46:18;;;;;;;0.43;0.10;;;;;;;;;;5104557;28;20568;-77
2023/06/15 09:48:50;;;;;;;2.75;0.10;;;;;;;;;;5087600;28;20051;-76
2023/06/15 09:51:20;;;;;;;1.45;0.50;;;;;;;;;;5105515;28;20060;-76
2023/06/15 09:53:52;;;;;;;1.75;0.13;;;;;;;;;;5105230;28;20074;-79
2023/06/15 09:56:23;;;;;;;1.15;0.25;;;;;;;;;;5105415;28;20052;-76
2023/06/15 09:59:02;;;;;;;2.45;0.40;;;;;;;;;;5105864;28;20051;-78
2023/06/15 10:01:36;;;;;;;3.20;0.63;;;;;;;;;;5105880;28;20050;-77
2023/06/15 10:04:07;;;;;;;4.03;0.38;;;;;;;;;;5105387;28;20510;-76
2023/06/15 10:06:44;;;;;;;1.15;0.28;;;;;;;;;;5104612;28;20050;-76
2023/06/15 10:09:22;;;;;;;2.80;0.45;;;;;;;;;;5105393;28;20398;-76
2023/06/15 10:11:57;;;;;;;2.13;0.40;;;;;;;;;;5105050;28;20052;-76
2023/06/15 10:14:57;;;;;;;2.75;0.20;;;;;;;;;;5105605;28;20047;-76
2023/06/15 10:17:33;;;;;;;0.77;0.30;;;;;;;;;;5096467;28;20514;-76
2023/06/15 10:20:09;;;;;;;3.10;0.30;;;;;;;;;;5105795;28;20387;-76
2023/06/15 10:22:46;;;;;;;;;;;;;;;;;;5105822;28;20043;-77
2023/06/15 10:25:18;;;;;;;1.35;0.22;;;;;;;;;;5105284;28;19924;-77
2023/06/15 10:27:49;;;;;;;1.67;0.40;;;;;;;;;;5105003;28;20051;-76
2023/06/15 10:31:05;;;;;;;1.65;0.30;;;;;;;;;;5105170;28;20502;-76
2023/06/15 10:33:45;;;;;;;1.02;0.25;;;;;;;;;;5034789;28;20051;-76
2023/06/15 10:36:45;;;;;;;0.57;0.50;;;;;;;;;;5105612;28;20051;-75
2023/06/15 10:39:24;;;;;;;1.98;0.47;;;;;;;;;;5105027;28;20075;-77
2023/06/15 10:41:57;;;;;;;0.52;0.20;;;;;;;;;;5104022;28;20047;-76
2023/06/15 10:44:34;;;;;;;0.82;0.35;;;;;;;;;;5105079;28;20040;-75
2023/06/15 10:47:09;;;;;;;1.52;0.22;;;;;;;;;;5105043;28;20410;-77
2023/06/15 10:49:53;;;;;;;2.38;0.43;;;;;;;;;;5105162;28;20031;-76
2023/06/15 10:52:35;;;;;;;2.08;0.40;;;;;;;;;;5105064;28;20044;-76
2023/06/15 10:55:10;;;;;;;0.57;0.25;;;;;;;;;;5105446;28;20402;-77
2023/06/15 10:57:42;;;;;;;2.72;0.32;;;;;;;;;;5104677;28;20059;-76
2023/06/15 11:00:23;;;;;;;7.45;2.53;;;;;;;;;;5105333;28;20055;-77
2023/06/15 11:02:59;;;;;;;1.13;0.40;;;;;;;;;;5105184;28;20048;-77
2023/06/15 11:05:44;;;;;;;1.27;0.38;;;;;;;;;;5104806;28;20067;-77
2023/06/15 11:08:17;;;;;;;1.30;0.30;;;;;;;;;;5090834;28;20478;-76
2023/06/15 11:10:47;;;;;;;6.25;0.50;;;;;;;;;;5108540;28;20048;-77
2023/06/15 11:13:26;;;;;;;2.92;0.40;;;;;;;;;;5108227;28;20039;-77
2023/06/15 11:16:10;;;;;;;4.93;0.50;;;;;;;;;;5108652;28;20043;-77
2023/06/15 11:18:56;;;;;;;0.55;0.20;;;;;;;;;;5108454;28;20046;-77
2023/06/15 11:21:30;;;;;;;0.50;0.30;;;;;;;;;;5108684;28;20043;-77
2023/06/15 11:24:02;;;;;;;5.35;0.60;;;;;;;;;;5108339;28;20051;-75
2023/06/15 11:26:34;;;;;;;2.53;0.40;;;;;;;;;;5090705;28;20526;-75
2023/06/15 11:29:07;;;;;;;2.70;0.57;;;;;;;;;;5108035;28;20051;-74
2023/06/15 11:31:41;;;;;;;2.67;0.50;;;;;;;;;;5090135;28;20040;-77
2023/06/15 11:34:12;;;;;;;3.95;0.70;;;;;;;;;;5089666;28;20047;-73
2023/06/15 11:36:43;;;;;;;2.30;0.50;;;;;;;;;;5108182;28;20051;-74
2023/06/15 11:39:23;;;;;;;4.28;0.73;;;;;;;;;;5108708;28;20040;-77
2023/06/15 11:41:54;;;;;;;4.20;0.65;;;;;;;;;;5107977;28;20052;-76
2023/06/15 11:44:30;;;;;;;0.30;0.30;;;;;;;;;;5107839;28;20048;-76
2023/06/15 11:47:01;;;;;;;2.45;0.30;;;;;;;;;;5108007;28;20043;-75
2023/06/15 11:49:34;;;;;;;2.45;0.60;;;;;;;;;;5107576;28;20861;-76
2023/06/15 11:52:05;;;;;;;1.48;0.35;;;;;;;;;;5108657;28;20055;-77
2023/06/15 11:54:36;;;;;;;3.90;0.38;;;;;;;;;;5106937;28;20052;-76
2023/06/15 11:57:20;;;;;;;0.47;0.28;;;;;;;;;;5091710;28;20059;-76
2023/06/15 11:59:53;;;;;;;3.03;0.50;;;;;;;;;;5107674;28;20142;-76
2023/06/15 12:02:23;;;;;;;2.65;0.40;;;;;;;;;;5107909;28;20059;-79
2023/06/15 12:04:59;;;;;;;4.15;0.57;;;;;;;;;;5088184;28;20063;-75
2023/06/15 12:07:36;;;;;;;5.13;0.70;;;;;;;;;;5107736;28;20044;-76
2023/06/15 12:10:09;;;;;;;3.50;0.75;;;;;;;;;;5089424;28;20055;-76
2023/06/15 12:12:40;;;;;;;2.05;0.43;;;;;;;;;;5107419;28;20051;-77
2023/06/15 12:15:11;;;;;;;4.78;0.50;;;;;;;;;;5107411;28;20062;-76
2023/06/15 12:17:43;;;;;;;5.00;0.50;;;;;;;;;;5107296;28;20040;-77
2023/06/15 12:20:16;;;;;;;1.42;0.35;;;;;;;;;;5107076;28;20054;-76
2023/06/15 12:22:48;;;;;;;7.20;0.65;;;;;;;;;;5107305;28;20430;-80
2023/06/15 12:25:38;;;;;;;1.85;0.30;;;;;;;;;;5107546;28;20039;-76
2023/06/15 12:28:14;;;;;;;4.32;0.43;;;;;;;;;;5107425;28;20043;-76
2023/06/15 12:30:49;;;;;;;2.35;0.60;;;;;;;;;;5107159;28;20054;-76
2023/06/15 12:33:42;;;;;;;3.25;0.60;;;;;;;;;;5107789;28;20055;-75
2023/06/15 12:36:14;;;;;;;1.75;0.30;;;;;;;;;;5107194;28;20039;-76
2023/06/15 12:38:49;;;;;;;3.13;0.40;;;;;;;;;;5106918;28;20508;-75
2023/06/15 12:41:19;;;;;;;3.45;0.77;;;;;;;;;;5107303;28;20390;-77
2023/06/15 12:43:49;;;;;;;3.28;0.30;;;;;;;;;;5107275;28;20048;-77
2023/06/15 12:46:20;;;;;;;3.20;0.85;;;;;;;;;;5107427;28;20047;-76
2023/06/15 12:48:50;;;;;;;1.98;0.32;;;;;;;;;;5106913;28;20054;-76
2023/06/15 12:51:20;;;;;;;1.58;0.40;;;;;;;;;;5090482;28;20047;-77
2023/06/15 12:53:50;;;;;;;1.92;0.30;;;;;;;;;;5090537;28;20055;-76
2023/06/15 12:56:20;;;;;;;6.30;0.65;;;;;;;;;;5089489;28;20059;-75
2023/06/15 12:58:50;;;;;;;5.07;0.80;;;;;;;;;;5089475;28;20047;-75
2023/06/15 13:01:21;;;;;;;5.75;0.52;;;;;;;;;;5106612;28;20505;-74
2023/06/15 13:03:54;;;;;;;2.85;0.60;;;;;;;;;;5106753;28;20039;-76
2023/06/15 13:06:26;;;;;;;3.28;0.63;;;;;;;;;;5105461;28;20422;-77
2023/06/15 13:08:57;;;;;;;1.60;0.60;;;;;;;;;;5106488;28;20485;-74
2023/06/15 13:11:28;;;;;;;1.90;0.35;;;;;;;;;;5087810;28;20055;-77
2023/06/15 13:13:59;;;;;;;2.35;0.45;;;;;;;;;;5106730;28;20051;-76
2023/06/15 13:16:30;;;;;;;6.25;0.65;;;;;;;;;;5106088;28;20066;-77
2023/06/15 13:19:01;;;;;;;6.57;1.17;;;;;;;;;;5105863;28;20516;-78
2023/06/15 13:21:31;;;;;;;4.07;0.50;;;;;;;;;;5105671;28;20051;-75
2023/06/15 13:24:02;;;;;;;1.40;0.68;;;;;;;;;;5105610;28;20521;-76
2023/06/15 13:26:32;;;;;;;7.70;0.60;;;;;;;;;;5106263;28;20505;-76
2023/06/15 13:29:03;;;;;;;5.28;0.73;;;;;;;;;;5105183;28;20044;-76
2023/06/15 13:31:33;;;;;;;3.78;0.70;;;;;;;;;;5087185;28;20273;-75
2023/06/15 13:34:03;;;;;;;4.63;0.52;;;;;;;;;;5106225;28;20047;-76
2023/06/15 13:36:34;;;;;;;3.40;0.75;;;;;;;;;;5105762;28;20832;-76
2023/06/15 13:39:05;;;;;;;1.90;0.40;;;;;;;;;;5087303;28;20518;-76
2023/06/15 13:41:37;;;;;;;4.18;0.73;;;;;;;;;;5086669;28;20062;-76
2023/06/15 13:44:08;;;;;;;0.80;0.20;;;;;;;;;;5106078;28;20522;-75
2023/06/15 13:46:39;;;;;;;3.17;0.65;;;;;;;;;;5107394;28;20047;-76
2023/06/15 13:49:11;;;;;;;0.60;0.50;;;;;;;;;;5106316;28;20059;-78
2023/06/15 13:51:42;;;;;;;2.88;0.63;;;;;;;;;;5107240;28;20059;-75
2023/06/15 13:54:13;;;;;;;4.55;0.70;;;;;;;;;;5106798;28;20526;-75
2023/06/15 13:56:43;;;;;;;4.20;0.95;;;;;;;;;;5107219;28;20062;-79
2023/06/15 13:59:14;;;;;;;5.30;0.70;;;;;;;;;;5106553;28;20055;-78
2023/06/15 14:01:44;;;;;;;3.33;0.63;;;;;;;;;;5088117;28;20792;-78
2023/06/15 14:04:14;;;;;;;2.05;0.63;;;;;;;;;;5107324;28;20043;-77
2023/06/15 14:06:44;;;;;;;2.15;0.63;;;;;;;;;;5106223;28;20058;-76
2023/06/15 14:09:14;;;;;;;3.13;0.80;;;;;;;;;;5105648;28;20056;-76
2023/06/15 14:11:45;;;;;;;2.55;0.82;;;;;;;;;;5106082;28;20073;-76
2023/06/15 14:14:16;;;;;;;4.93;1.42;;;;;;;;;;5105906;28;20043;-75
2023/06/15 14:16:47;;;;;;;5.20;0.90;;;;;;;;;;5107123;28;20414;-76
2023/06/15 14:19:18;;;;;;;1.25;0.52;;;;;;;;;;5104764;28;20379;-76
2023/06/15 14:21:48;;;;;;;2.22;0.50;;;;;;;;;;5105798;28;20418;-77
2023/06/15 14:24:20;;;;;;;2.20;0.80;;;;;;;;;;5106576;28;20048;-76
2023/06/15 14:26:51;;;;;;;1.42;0.38;;;;;;;;;;5106369;28;20050;-77
2023/06/15 14:29:21;;;;;;;5.20;0.47;;;;;;;;;;5105938;28;20039;-75
2023/06/15 14:31:51;;;;;;;5.18;0.82;;;;;;;;;;5106077;28;20402;-75
2023/06/15 14:34:23;;;;;;;2.75;0.45;;;;;;;;;;5106402;28;20054;-77
2023/06/15 14:36:54;;;;;;;3.53;1.13;;;;;;;;;;5086725;28;20052;-77
2023/06/15 14:39:25;;;;;;;8.45;0.68;;;;;;;;;;5105506;28;20048;-76
2023/06/15 14:41:54;;;;;;;3.17;0.60;;;;;;;;;;5107580;28;20047;-77
2023/06/15 14:44:25;;;;;;;5.78;0.60;;;;;;;;;;5110794;28;20056;-76
2023/06/15 14:46:57;;;;;;;3.15;0.57;;;;;;;;;;5109939;28;20055;-77
2023/06/15 14:49:28;;;;;;;2.95;0.60;;;;;;;;;;5109920;28;20063;-76
2023/06/15 14:51:58;;;;;;;2.40;0.40;;;;;;;;;;5109290;28;20043;-77
2023/06/15 14:54:30;;;;;;;2.65;0.60;;;;;;;;;;5109457;28;20494;-75
2023/06/15 14:57:01;;;;;;;3.35;0.52;;;;;;;;;;5090815;28;20062;-75
2023/06/15 14:59:32;;;;;;;1.80;0.25;;;;;;;;;;5108925;28;20046;-74
2023/06/15 15:02:02;;;;;;;1.55;0.40;;;;;;;;;;5108749;28;20051;-75
2023/06/15 15:04:33;;;;;;;2.42;0.50;;;;;;;;;;5091233;28;20055;-75
2023/06/15 15:07:03;;;;;;;3.97;0.60;;;;;;;;;;5108473;28;20043;-75
2023/06/15 15:09:34;;;;;;;2.03;0.43;;;;;;;;;;5109048;28;20044;-75
2023/06/15 15:12:06;;;;;;;3.83;0.30;;;;;;;;;;5109324;28;20047;-76
2023/06/15 15:14:36;;;;;;;0.65;0.20;;;;;;;;;;5109303;28;20052;-77
2023/06/15 15:17:08;;;;;;;3.97;0.38;;;;;;;;;;5109111;28;20383;-75